sensor_id;sensor_type;location;lat;lon;timestamp;temperature;humidity
25628;DHT22;40915;50.826;4.356;2022-07-06T00:01:06;16.10;99.90
25628;DHT22;40915;50.826;4.356;2022-07-06T00:03:32;16.00;99.90
25628;DHT22;40915;50.826;4.356;2022-07-06T00:05:58;16.10;99.90
25628;DHT22;40915;50.826;4.356;2022-07-06T00:08:23;16.10;99.90
25628;DHT22;40915;50.826;4.356;2022-07-06T00:10:49;16.00;99.90
25628;DHT22;40915;50.826;4.356;2022-07-06T00:13:14;16.00;99.90
25628;DHT22;40915;50.826;4.356;2022-07-06T00:15:40;16.00;99.90
25628;DHT22;40915;50.826;4.356;2022-07-06T00:18:07;16.00;99.90
25628;DHT22;40915;50.826;4.356;2022-07-06T00:20:32;16.00;99.90
25628;DHT22;40915;50.826;4.356;2022-07-06T00:22:58;16.00;99.90
25628;DHT22;40915;50.826;4.356;2022-07-06T00:25:24;16.00;99.90
25628;DHT22;40915;50.826;4.356;2022-07-06T00:27:49;16.00;99.90
25628;DHT22;40915;50.826;4.356;2022-07-06T00:30:15;16.00;99.90
25628;DHT22;40915;50.826;4.356;2022-07-06T00:32:40;16.00;99.90
25628;DHT22;40915;50.826;4.356;2022-07-06T00:35:06;16.00;99.90
25628;DHT22;40915;50.826;4.356;2022-07-06T00:37:32;16.00;99.90
25628;DHT22;40915;50.826;4.356;2022-07-06T00:39:58;16.00;99.90
25628;DHT22;40915;50.826;4.356;2022-07-06T00:42:23;16.00;99.90
25628;DHT22;40915;50.826;4.356;2022-07-06T00:44:50;16.00;99.90
25628;DHT22;40915;50.826;4.356;2022-07-06T00:47:15;16.00;99.90
25628;DHT22;40915;50.826;4.356;2022-07-06T00:49:41;16.00;99.90
25628;DHT22;40915;50.826;4.356;2022-07-06T00:52:25;16.00;99.90
25628;DHT22;40915;50.826;4.356;2022-07-06T00:54:51;16.00;99.90
25628;DHT22;40915;50.826;4.356;2022-07-06T00:57:17;16.00;99.90
25628;DHT22;40915;50.826;4.356;2022-07-06T00:59:43;16.00;99.90
25628;DHT22;40915;50.826;4.356;2022-07-06T01:02:09;16.00;99.90
25628;DHT22;40915;50.826;4.356;2022-07-06T01:04:35;16.00;99.90
25628;DHT22;40915;50.826;4.356;2022-07-06T01:07:01;16.00;99.90
25628;DHT22;40915;50.826;4.356;2022-07-06T01:09:27;15.90;99.90
25628;DHT22;40915;50.826;4.356;2022-07-06T01:11:53;15.90;99.90
25628;DHT22;40915;50.826;4.356;2022-07-06T01:14:20;15.90;99.90
25628;DHT22;40915;50.826;4.356;2022-07-06T01:16:46;15.90;99.90
25628;DHT22;40915;50.826;4.356;2022-07-06T01:19:12;15.90;99.90
25628;DHT22;40915;50.826;4.356;2022-07-06T01:21:38;15.90;99.90
25628;DHT22;40915;50.826;4.356;2022-07-06T01:24:04;15.90;99.90
25628;DHT22;40915;50.826;4.356;2022-07-06T01:26:30;15.80;99.90
25628;DHT22;40915;50.826;4.356;2022-07-06T01:28:55;15.80;99.90
25628;DHT22;40915;50.826;4.356;2022-07-06T01:31:23;15.80;99.90
25628;DHT22;40915;50.826;4.356;2022-07-06T01:33:54;15.80;99.90
25628;DHT22;40915;50.826;4.356;2022-07-06T01:36:20;15.80;99.90
25628;DHT22;40915;50.826;4.356;2022-07-06T01:38:47;15.80;99.90
25628;DHT22;40915;50.826;4.356;2022-07-06T01:41:13;15.70;99.90
25628;DHT22;40915;50.826;4.356;2022-07-06T01:43:38;15.80;99.90
25628;DHT22;40915;50.826;4.356;2022-07-06T01:46:04;15.70;99.90
25628;DHT22;40915;50.826;4.356;2022-07-06T01:48:30;15.70;99.90
25628;DHT22;40915;50.826;4.356;2022-07-06T01:50:55;15.70;99.90
25628;DHT22;40915;50.826;4.356;2022-07-06T01:53:21;15.70;99.90
25628;DHT22;40915;50.826;4.356;2022-07-06T01:55:47;15.70;99.90
25628;DHT22;40915;50.826;4.356;2022-07-06T01:58:12;15.60;99.90
25628;DHT22;40915;50.826;4.356;2022-07-06T02:00:38;15.60;99.90
25628;DHT22;40915;50.826;4.356;2022-07-06T02:03:04;15.60;99.90
25628;DHT22;40915;50.826;4.356;2022-07-06T02:05:29;15.60;99.90
25628;DHT22;40915;50.826;4.356;2022-07-06T02:07:55;15.50;99.90
25628;DHT22;40915;50.826;4.356;2022-07-06T02:10:20;15.50;99.90
25628;DHT22;40915;50.826;4.356;2022-07-06T02:12:47;15.50;99.90
25628;DHT22;40915;50.826;4.356;2022-07-06T02:15:12;15.40;99.90
25628;DHT22;40915;50.826;4.356;2022-07-06T02:17:38;15.40;99.90
25628;DHT22;40915;50.826;4.356;2022-07-06T02:20:05;15.40;99.90
25628;DHT22;40915;50.826;4.356;2022-07-06T02:22:31;15.40;99.90
25628;DHT22;40915;50.826;4.356;2022-07-06T02:24:56;15.40;99.90
25628;DHT22;40915;50.826;4.356;2022-07-06T02:27:22;15.30;99.90
25628;DHT22;40915;50.826;4.356;2022-07-06T02:29:47;15.30;99.90
25628;DHT22;40915;50.826;4.356;2022-07-06T02:32:13;15.30;99.90
25628;DHT22;40915;50.826;4.356;2022-07-06T02:34:39;15.30;99.90
25628;DHT22;40915;50.826;4.356;2022-07-06T02:37:04;15.30;99.90
25628;DHT22;40915;50.826;4.356;2022-07-06T02:39:30;15.30;99.90
25628;DHT22;40915;50.826;4.356;2022-07-06T02:41:56;15.20;99.90
25628;DHT22;40915;50.826;4.356;2022-07-06T02:44:21;15.20;99.90
25628;DHT22;40915;50.826;4.356;2022-07-06T02:46:47;15.20;99.90
25628;DHT22;40915;50.826;4.356;2022-07-06T02:49:13;15.20;99.90
25628;DHT22;40915;50.826;4.356;2022-07-06T02:51:38;15.10;99.90
25628;DHT22;40915;50.826;4.356;2022-07-06T02:54:04;15.10;99.90
25628;DHT22;40915;50.826;4.356;2022-07-06T02:56:30;15.10;99.90
25628;DHT22;40915;50.826;4.356;2022-07-06T02:58:55;15.10;99.90
25628;DHT22;40915;50.826;4.356;2022-07-06T03:01:21;15.10;99.90
25628;DHT22;40915;50.826;4.356;2022-07-06T03:03:46;15.10;99.90
25628;DHT22;40915;50.826;4.356;2022-07-06T03:06:12;15.10;99.90
25628;DHT22;40915;50.826;4.356;2022-07-06T03:08:38;15.10;99.90
25628;DHT22;40915;50.826;4.356;2022-07-06T03:11:03;15.00;99.90
25628;DHT22;40915;50.826;4.356;2022-07-06T03:13:29;15.10;99.90
25628;DHT22;40915;50.826;4.356;2022-07-06T03:15:55;15.00;99.90
25628;DHT22;40915;50.826;4.356;2022-07-06T03:18:21;15.00;99.90
25628;DHT22;40915;50.826;4.356;2022-07-06T03:20:46;15.00;99.90
25628;DHT22;40915;50.826;4.356;2022-07-06T03:23:12;15.00;99.90
25628;DHT22;40915;50.826;4.356;2022-07-06T03:25:37;15.00;99.90
25628;DHT22;40915;50.826;4.356;2022-07-06T03:28:04;15.00;99.90
25628;DHT22;40915;50.826;4.356;2022-07-06T03:30:29;15.00;99.90
25628;DHT22;40915;50.826;4.356;2022-07-06T03:32:55;15.00;99.90
25628;DHT22;40915;50.826;4.356;2022-07-06T03:35:20;15.00;99.90
25628;DHT22;40915;50.826;4.356;2022-07-06T03:37:46;15.00;99.90
25628;DHT22;40915;50.826;4.356;2022-07-06T03:40:12;15.00;99.90
25628;DHT22;40915;50.826;4.356;2022-07-06T03:42:38;15.00;99.90
25628;DHT22;40915;50.826;4.356;2022-07-06T03:45:04;15.00;99.90
25628;DHT22;40915;50.826;4.356;2022-07-06T03:47:30;15.00;99.90
25628;DHT22;40915;50.826;4.356;2022-07-06T03:49:56;15.00;99.90
25628;DHT22;40915;50.826;4.356;2022-07-06T03:52:22;15.00;99.90
25628;DHT22;40915;50.826;4.356;2022-07-06T03:54:47;15.00;99.90
25628;DHT22;40915;50.826;4.356;2022-07-06T03:57:13;15.00;99.90
25628;DHT22;40915;50.826;4.356;2022-07-06T03:59:40;14.90;99.90
25628;DHT22;40915;50.826;4.356;2022-07-06T04:02:05;14.90;99.90
25628;DHT22;40915;50.826;4.356;2022-07-06T04:04:33;14.90;99.90
25628;DHT22;40915;50.826;4.356;2022-07-06T04:06:58;14.90;99.90
25628;DHT22;40915;50.826;4.356;2022-07-06T04:09:24;14.80;99.90
25628;DHT22;40915;50.826;4.356;2022-07-06T04:11:50;14.90;99.90
25628;DHT22;40915;50.826;4.356;2022-07-06T04:14:15;15.00;99.90
25628;DHT22;40915;50.826;4.356;2022-07-06T04:16:41;15.00;99.90
25628;DHT22;40915;50.826;4.356;2022-07-06T04:19:06;15.00;99.90
25628;DHT22;40915;50.826;4.356;2022-07-06T04:21:32;15.00;99.90
25628;DHT22;40915;50.826;4.356;2022-07-06T04:23:58;15.10;99.90
25628;DHT22;40915;50.826;4.356;2022-07-06T04:26:23;15.10;99.90
25628;DHT22;40915;50.826;4.356;2022-07-06T04:28:49;15.10;99.90
25628;DHT22;40915;50.826;4.356;2022-07-06T04:31:15;15.20;99.90
25628;DHT22;40915;50.826;4.356;2022-07-06T04:33:41;15.20;99.90
25628;DHT22;40915;50.826;4.356;2022-07-06T04:36:09;15.20;99.90
25628;DHT22;40915;50.826;4.356;2022-07-06T04:38:34;15.20;99.90
25628;DHT22;40915;50.826;4.356;2022-07-06T04:41:00;15.20;99.90
25628;DHT22;40915;50.826;4.356;2022-07-06T04:43:26;15.30;99.90
25628;DHT22;40915;50.826;4.356;2022-07-06T04:45:51;15.30;99.90
25628;DHT22;40915;50.826;4.356;2022-07-06T04:48:17;15.40;99.90
25628;DHT22;40915;50.826;4.356;2022-07-06T04:50:43;15.40;99.90
25628;DHT22;40915;50.826;4.356;2022-07-06T04:53:08;15.50;99.90
25628;DHT22;40915;50.826;4.356;2022-07-06T04:55:34;15.50;99.90
25628;DHT22;40915;50.826;4.356;2022-07-06T04:58:00;15.50;99.90
25628;DHT22;40915;50.826;4.356;2022-07-06T05:00:26;15.50;99.90
25628;DHT22;40915;50.826;4.356;2022-07-06T05:02:52;15.50;99.90
25628;DHT22;40915;50.826;4.356;2022-07-06T05:05:17;15.60;99.90
25628;DHT22;40915;50.826;4.356;2022-07-06T05:07:43;15.60;99.90
25628;DHT22;40915;50.826;4.356;2022-07-06T05:10:10;15.60;99.90
25628;DHT22;40915;50.826;4.356;2022-07-06T05:12:36;15.60;99.90
25628;DHT22;40915;50.826;4.356;2022-07-06T05:15:02;15.70;99.90
25628;DHT22;40915;50.826;4.356;2022-07-06T05:17:28;15.70;99.90
25628;DHT22;40915;50.826;4.356;2022-07-06T05:19:54;15.70;99.90
25628;DHT22;40915;50.826;4.356;2022-07-06T05:22:19;15.70;99.90
25628;DHT22;40915;50.826;4.356;2022-07-06T05:24:45;15.80;99.90
25628;DHT22;40915;50.826;4.356;2022-07-06T05:27:11;15.80;99.90
25628;DHT22;40915;50.826;4.356;2022-07-06T05:29:36;15.80;99.90
25628;DHT22;40915;50.826;4.356;2022-07-06T05:32:02;15.90;99.90
25628;DHT22;40915;50.826;4.356;2022-07-06T05:34:28;15.90;99.90
25628;DHT22;40915;50.826;4.356;2022-07-06T05:36:53;15.90;99.90
25628;DHT22;40915;50.826;4.356;2022-07-06T05:39:19;15.90;99.90
25628;DHT22;40915;50.826;4.356;2022-07-06T05:41:46;16.00;99.90
25628;DHT22;40915;50.826;4.356;2022-07-06T05:44:12;16.10;99.90
25628;DHT22;40915;50.826;4.356;2022-07-06T05:46:38;16.20;99.90
25628;DHT22;40915;50.826;4.356;2022-07-06T05:49:04;16.30;99.90
25628;DHT22;40915;50.826;4.356;2022-07-06T05:51:48;16.30;99.90
25628;DHT22;40915;50.826;4.356;2022-07-06T05:54:15;16.60;99.90
25628;DHT22;40915;50.826;4.356;2022-07-06T05:56:40;16.50;99.90
25628;DHT22;40915;50.826;4.356;2022-07-06T05:59:06;16.60;99.90
25628;DHT22;40915;50.826;4.356;2022-07-06T06:01:32;16.70;99.90
25628;DHT22;40915;50.826;4.356;2022-07-06T06:03:57;16.80;99.90
25628;DHT22;40915;50.826;4.356;2022-07-06T06:06:25;16.90;99.90
25628;DHT22;40915;50.826;4.356;2022-07-06T06:08:50;17.10;99.90
25628;DHT22;40915;50.826;4.356;2022-07-06T06:11:16;17.70;99.90
25628;DHT22;40915;50.826;4.356;2022-07-06T06:13:42;18.40;99.90
25628;DHT22;40915;50.826;4.356;2022-07-06T06:16:07;19.20;99.90
25628;DHT22;40915;50.826;4.356;2022-07-06T06:18:33;19.70;99.90
25628;DHT22;40915;50.826;4.356;2022-07-06T06:20:59;20.20;99.90
25628;DHT22;40915;50.826;4.356;2022-07-06T06:23:24;20.90;99.90
25628;DHT22;40915;50.826;4.356;2022-07-06T06:25:50;21.70;99.90
25628;DHT22;40915;50.826;4.356;2022-07-06T06:30:46;24.40;99.90
25628;DHT22;40915;50.826;4.356;2022-07-06T06:33:16;23.20;99.90
25628;DHT22;40915;50.826;4.356;2022-07-06T06:35:50;23.80;99.90
25628;DHT22;40915;50.826;4.356;2022-07-06T06:38:17;24.20;99.90
25628;DHT22;40915;50.826;4.356;2022-07-06T06:40:43;24.40;99.90
25628;DHT22;40915;50.826;4.356;2022-07-06T06:43:09;24.80;99.90
25628;DHT22;40915;50.826;4.356;2022-07-06T06:45:35;24.60;99.90
25628;DHT22;40915;50.826;4.356;2022-07-06T06:48:00;24.60;99.90
25628;DHT22;40915;50.826;4.356;2022-07-06T06:50:26;24.60;99.90
25628;DHT22;40915;50.826;4.356;2022-07-06T06:52:52;24.00;99.90
25628;DHT22;40915;50.826;4.356;2022-07-06T06:55:18;23.70;99.90
25628;DHT22;40915;50.826;4.356;2022-07-06T06:57:44;23.50;99.90
25628;DHT22;40915;50.826;4.356;2022-07-06T07:00:13;23.30;99.90
25628;DHT22;40915;50.826;4.356;2022-07-06T07:02:39;22.80;99.90
25628;DHT22;40915;50.826;4.356;2022-07-06T07:05:05;22.60;99.90
25628;DHT22;40915;50.826;4.356;2022-07-06T07:07:32;22.80;99.90
25628;DHT22;40915;50.826;4.356;2022-07-06T07:09:58;22.70;99.90
25628;DHT22;40915;50.826;4.356;2022-07-06T07:12:24;22.70;99.90
25628;DHT22;40915;50.826;4.356;2022-07-06T07:14:50;22.60;99.90
25628;DHT22;40915;50.826;4.356;2022-07-06T07:17:15;22.20;99.90
25628;DHT22;40915;50.826;4.356;2022-07-06T07:19:41;22.60;99.90
25628;DHT22;40915;50.826;4.356;2022-07-06T07:22:07;22.70;99.90
25628;DHT22;40915;50.826;4.356;2022-07-06T07:24:33;22.90;99.90
25628;DHT22;40915;50.826;4.356;2022-07-06T07:26:58;23.20;99.90
25628;DHT22;40915;50.826;4.356;2022-07-06T07:29:24;23.00;99.90
25628;DHT22;40915;50.826;4.356;2022-07-06T07:31:50;23.20;99.90
25628;DHT22;40915;50.826;4.356;2022-07-06T07:34:15;23.30;99.90
25628;DHT22;40915;50.826;4.356;2022-07-06T07:36:42;23.60;99.90
25628;DHT22;40915;50.826;4.356;2022-07-06T07:39:08;23.90;99.90
25628;DHT22;40915;50.826;4.356;2022-07-06T07:41:34;24.00;99.90
25628;DHT22;40915;50.826;4.356;2022-07-06T07:43:59;24.10;99.90
25628;DHT22;40915;50.826;4.356;2022-07-06T07:46:25;24.40;99.90
25628;DHT22;40915;50.826;4.356;2022-07-06T07:48:50;24.20;99.90
25628;DHT22;40915;50.826;4.356;2022-07-06T07:51:16;24.20;99.90
25628;DHT22;40915;50.826;4.356;2022-07-06T07:53:42;24.30;99.90
25628;DHT22;40915;50.826;4.356;2022-07-06T07:56:08;24.60;99.90
25628;DHT22;40915;50.826;4.356;2022-07-06T07:58:33;25.00;99.90
25628;DHT22;40915;50.826;4.356;2022-07-06T08:01:00;25.10;99.90
25628;DHT22;40915;50.826;4.356;2022-07-06T08:03:25;25.20;99.90
25628;DHT22;40915;50.826;4.356;2022-07-06T08:05:51;25.30;99.90
25628;DHT22;40915;50.826;4.356;2022-07-06T08:08:17;25.50;99.90
25628;DHT22;40915;50.826;4.356;2022-07-06T08:10:43;25.50;99.90
25628;DHT22;40915;50.826;4.356;2022-07-06T08:13:08;25.40;99.90
25628;DHT22;40915;50.826;4.356;2022-07-06T08:15:36;25.30;99.90
25628;DHT22;40915;50.826;4.356;2022-07-06T08:18:02;25.00;99.90
25628;DHT22;40915;50.826;4.356;2022-07-06T08:20:28;25.00;99.90
25628;DHT22;40915;50.826;4.356;2022-07-06T08:22:53;24.70;99.90
25628;DHT22;40915;50.826;4.356;2022-07-06T08:25:19;24.30;99.90
25628;DHT22;40915;50.826;4.356;2022-07-06T08:27:45;24.80;99.90
25628;DHT22;40915;50.826;4.356;2022-07-06T08:30:11;25.00;99.90
25628;DHT22;40915;50.826;4.356;2022-07-06T08:32:41;25.30;99.90
25628;DHT22;40915;50.826;4.356;2022-07-06T09:02:06;23.50;99.90
25628;DHT22;40915;50.826;4.356;2022-07-06T09:04:35;23.40;99.90
25628;DHT22;40915;50.826;4.356;2022-07-06T09:07:01;22.90;99.90
25628;DHT22;40915;50.826;4.356;2022-07-06T09:09:29;22.70;99.90
25628;DHT22;40915;50.826;4.356;2022-07-06T09:11:56;22.90;99.90
25628;DHT22;40915;50.826;4.356;2022-07-06T09:14:22;23.00;99.90
25628;DHT22;40915;50.826;4.356;2022-07-06T09:16:52;22.80;99.90
25628;DHT22;40915;50.826;4.356;2022-07-06T09:19:27;22.60;99.90
25628;DHT22;40915;50.826;4.356;2022-07-06T09:21:52;22.70;99.90
25628;DHT22;40915;50.826;4.356;2022-07-06T09:24:19;22.70;99.90
25628;DHT22;40915;50.826;4.356;2022-07-06T09:26:45;22.70;99.90
25628;DHT22;40915;50.826;4.356;2022-07-06T09:31:40;22.10;99.90
25628;DHT22;40915;50.826;4.356;2022-07-06T09:34:08;22.00;99.90
25628;DHT22;40915;50.826;4.356;2022-07-06T09:39:21;22.20;99.90
25628;DHT22;40915;50.826;4.356;2022-07-06T09:41:49;22.40;99.90
25628;DHT22;40915;50.826;4.356;2022-07-06T09:44:25;22.50;99.90
25628;DHT22;40915;50.826;4.356;2022-07-06T09:46:51;22.70;99.90
25628;DHT22;40915;50.826;4.356;2022-07-06T09:49:21;22.70;99.90
25628;DHT22;40915;50.826;4.356;2022-07-06T09:51:48;22.60;99.90
25628;DHT22;40915;50.826;4.356;2022-07-06T09:54:15;22.40;99.90
25628;DHT22;40915;50.826;4.356;2022-07-06T09:56:43;22.20;99.90
25628;DHT22;40915;50.826;4.356;2022-07-06T09:59:12;22.00;99.90
25628;DHT22;40915;50.826;4.356;2022-07-06T10:01:39;22.10;99.90
25628;DHT22;40915;50.826;4.356;2022-07-06T10:04:10;22.10;99.90
25628;DHT22;40915;50.826;4.356;2022-07-06T10:06:38;22.10;99.90
25628;DHT22;40915;50.826;4.356;2022-07-06T10:09:09;22.30;99.90
25628;DHT22;40915;50.826;4.356;2022-07-06T10:11:39;22.40;99.90
25628;DHT22;40915;50.826;4.356;2022-07-06T10:14:06;22.30;99.90
25628;DHT22;40915;50.826;4.356;2022-07-06T10:16:37;22.50;99.90
25628;DHT22;40915;50.826;4.356;2022-07-06T10:19:07;22.50;99.90
25628;DHT22;40915;50.826;4.356;2022-07-06T10:21:39;22.50;99.90
25628;DHT22;40915;50.826;4.356;2022-07-06T10:24:06;22.50;99.90
25628;DHT22;40915;50.826;4.356;2022-07-06T10:26:33;22.60;99.90
25628;DHT22;40915;50.826;4.356;2022-07-06T10:29:01;22.70;99.90
25628;DHT22;40915;50.826;4.356;2022-07-06T10:31:28;22.80;99.90
25628;DHT22;40915;50.826;4.356;2022-07-06T10:33:56;22.50;99.90
25628;DHT22;40915;50.826;4.356;2022-07-06T10:36:22;22.60;99.90
25628;DHT22;40915;50.826;4.356;2022-07-06T10:38:50;22.50;99.90
25628;DHT22;40915;50.826;4.356;2022-07-06T10:41:17;22.40;99.90
25628;DHT22;40915;50.826;4.356;2022-07-06T10:43:47;22.50;99.90
25628;DHT22;40915;50.826;4.356;2022-07-06T10:46:17;22.40;99.90
25628;DHT22;40915;50.826;4.356;2022-07-06T10:48:46;22.50;99.90
25628;DHT22;40915;50.826;4.356;2022-07-06T10:51:26;22.50;99.90
25628;DHT22;40915;50.826;4.356;2022-07-06T10:54:00;22.60;99.90
25628;DHT22;40915;50.826;4.356;2022-07-06T10:56:40;22.80;99.90
25628;DHT22;40915;50.826;4.356;2022-07-06T10:59:23;22.90;99.90
25628;DHT22;40915;50.826;4.356;2022-07-06T11:02:11;22.90;99.90
25628;DHT22;40915;50.826;4.356;2022-07-06T11:04:38;22.90;99.90
25628;DHT22;40915;50.826;4.356;2022-07-06T11:07:09;23.00;99.90
25628;DHT22;40915;50.826;4.356;2022-07-06T11:09:36;23.00;99.90
25628;DHT22;40915;50.826;4.356;2022-07-06T11:12:16;23.20;99.90
25628;DHT22;40915;50.826;4.356;2022-07-06T11:14:45;23.50;99.90
25628;DHT22;40915;50.826;4.356;2022-07-06T11:17:12;23.60;99.90
25628;DHT22;40915;50.826;4.356;2022-07-06T11:19:38;23.80;99.90
25628;DHT22;40915;50.826;4.356;2022-07-06T11:22:15;23.80;99.90
25628;DHT22;40915;50.826;4.356;2022-07-06T11:24:41;23.80;99.90
25628;DHT22;40915;50.826;4.356;2022-07-06T11:27:08;23.70;99.90
25628;DHT22;40915;50.826;4.356;2022-07-06T11:29:35;23.40;99.90
25628;DHT22;40915;50.826;4.356;2022-07-06T11:32:04;23.20;99.90
25628;DHT22;40915;50.826;4.356;2022-07-06T11:34:33;23.20;99.90
25628;DHT22;40915;50.826;4.356;2022-07-06T11:37:01;23.20;99.90
25628;DHT22;40915;50.826;4.356;2022-07-06T11:39:35;23.40;99.90
25628;DHT22;40915;50.826;4.356;2022-07-06T11:42:01;23.50;99.90
25628;DHT22;40915;50.826;4.356;2022-07-06T11:44:29;23.60;99.90
25628;DHT22;40915;50.826;4.356;2022-07-06T11:46:55;23.70;99.90
25628;DHT22;40915;50.826;4.356;2022-07-06T11:49:23;23.60;99.90
25628;DHT22;40915;50.826;4.356;2022-07-06T11:51:48;23.60;99.90
25628;DHT22;40915;50.826;4.356;2022-07-06T11:54:19;23.40;99.90
25628;DHT22;40915;50.826;4.356;2022-07-06T11:56:47;23.30;99.90
25628;DHT22;40915;50.826;4.356;2022-07-06T11:59:14;23.30;99.90
25628;DHT22;40915;50.826;4.356;2022-07-06T12:01:40;23.50;99.90
25628;DHT22;40915;50.826;4.356;2022-07-06T12:04:09;23.50;99.90
25628;DHT22;40915;50.826;4.356;2022-07-06T12:06:36;23.50;99.90
25628;DHT22;40915;50.826;4.356;2022-07-06T12:09:02;23.20;99.90
25628;DHT22;40915;50.826;4.356;2022-07-06T12:11:34;23.30;99.90
25628;DHT22;40915;50.826;4.356;2022-07-06T12:14:13;23.20;99.90
25628;DHT22;40915;50.826;4.356;2022-07-06T12:16:40;23.30;99.90
25628;DHT22;40915;50.826;4.356;2022-07-06T12:19:06;23.40;99.90
25628;DHT22;40915;50.826;4.356;2022-07-06T12:21:34;23.30;99.90
25628;DHT22;40915;50.826;4.356;2022-07-06T12:24:01;23.30;99.90
25628;DHT22;40915;50.826;4.356;2022-07-06T12:26:28;23.30;99.90
25628;DHT22;40915;50.826;4.356;2022-07-06T12:29:12;23.30;99.90
25628;DHT22;40915;50.826;4.356;2022-07-06T12:31:43;23.20;99.90
25628;DHT22;40915;50.826;4.356;2022-07-06T12:34:15;23.10;99.90
25628;DHT22;40915;50.826;4.356;2022-07-06T12:39:14;22.90;99.90
25628;DHT22;40915;50.826;4.356;2022-07-06T12:41:53;22.90;99.90
25628;DHT22;40915;50.826;4.356;2022-07-06T12:44:22;22.80;99.90
25628;DHT22;40915;50.826;4.356;2022-07-06T12:46:50;22.70;99.90
25628;DHT22;40915;50.826;4.356;2022-07-06T12:49:23;22.90;99.90
25628;DHT22;40915;50.826;4.356;2022-07-06T12:52:00;22.90;99.90
25628;DHT22;40915;50.826;4.356;2022-07-06T12:54:30;22.90;99.90
25628;DHT22;40915;50.826;4.356;2022-07-06T12:59:28;23.30;99.90
25628;DHT22;40915;50.826;4.356;2022-07-06T13:01:54;23.60;99.90
25628;DHT22;40915;50.826;4.356;2022-07-06T13:04:25;23.70;99.90
25628;DHT22;40915;50.826;4.356;2022-07-06T13:06:51;23.70;99.90
25628;DHT22;40915;50.826;4.356;2022-07-06T13:09:17;24.00;99.90
25628;DHT22;40915;50.826;4.356;2022-07-06T13:11:45;24.20;99.90
25628;DHT22;40915;50.826;4.356;2022-07-06T13:14:11;24.20;99.90
25628;DHT22;40915;50.826;4.356;2022-07-06T13:16:36;24.00;99.90
25628;DHT22;40915;50.826;4.356;2022-07-06T13:19:03;23.90;99.90
25628;DHT22;40915;50.826;4.356;2022-07-06T13:21:29;23.90;99.90
25628;DHT22;40915;50.826;4.356;2022-07-06T13:23:55;24.00;99.90
25628;DHT22;40915;50.826;4.356;2022-07-06T13:26:22;24.20;99.90
25628;DHT22;40915;50.826;4.356;2022-07-06T13:28:47;24.30;99.90
25628;DHT22;40915;50.826;4.356;2022-07-06T13:31:13;24.10;99.90
25628;DHT22;40915;50.826;4.356;2022-07-06T13:33:39;23.90;99.90
25628;DHT22;40915;50.826;4.356;2022-07-06T13:36:05;23.90;99.90
25628;DHT22;40915;50.826;4.356;2022-07-06T13:38:30;23.90;99.90
25628;DHT22;40915;50.826;4.356;2022-07-06T13:40:56;23.70;99.90
25628;DHT22;40915;50.826;4.356;2022-07-06T13:43:22;23.60;99.90
25628;DHT22;40915;50.826;4.356;2022-07-06T13:45:48;23.50;99.90
25628;DHT22;40915;50.826;4.356;2022-07-06T13:48:13;23.50;99.90
25628;DHT22;40915;50.826;4.356;2022-07-06T13:50:39;23.50;99.90
25628;DHT22;40915;50.826;4.356;2022-07-06T13:53:06;23.50;99.90
25628;DHT22;40915;50.826;4.356;2022-07-06T13:55:32;23.50;99.90
25628;DHT22;40915;50.826;4.356;2022-07-06T13:57:58;23.50;99.90
25628;DHT22;40915;50.826;4.356;2022-07-06T14:00:25;23.50;99.90
25628;DHT22;40915;50.826;4.356;2022-07-06T14:02:50;23.60;99.90
25628;DHT22;40915;50.826;4.356;2022-07-06T14:05:16;23.60;99.90
25628;DHT22;40915;50.826;4.356;2022-07-06T14:07:42;23.80;99.90
25628;DHT22;40915;50.826;4.356;2022-07-06T14:10:08;23.70;99.90
25628;DHT22;40915;50.826;4.356;2022-07-06T14:12:34;23.80;99.90
25628;DHT22;40915;50.826;4.356;2022-07-06T14:15:00;23.90;99.90
25628;DHT22;40915;50.826;4.356;2022-07-06T14:17:26;23.90;99.90
25628;DHT22;40915;50.826;4.356;2022-07-06T14:19:52;24.10;99.90
25628;DHT22;40915;50.826;4.356;2022-07-06T14:22:18;24.40;99.90
25628;DHT22;40915;50.826;4.356;2022-07-06T14:24:43;24.40;99.90
25628;DHT22;40915;50.826;4.356;2022-07-06T14:27:09;24.60;99.90
25628;DHT22;40915;50.826;4.356;2022-07-06T14:29:35;24.50;99.90
25628;DHT22;40915;50.826;4.356;2022-07-06T14:32:00;24.40;99.90
25628;DHT22;40915;50.826;4.356;2022-07-06T14:34:26;24.50;99.90
25628;DHT22;40915;50.826;4.356;2022-07-06T14:36:52;24.50;99.90
25628;DHT22;40915;50.826;4.356;2022-07-06T14:39:18;24.20;99.90
25628;DHT22;40915;50.826;4.356;2022-07-06T14:41:43;24.20;99.90
25628;DHT22;40915;50.826;4.356;2022-07-06T14:44:09;24.20;99.90
25628;DHT22;40915;50.826;4.356;2022-07-06T14:46:35;24.20;99.90
25628;DHT22;40915;50.826;4.356;2022-07-06T14:49:01;24.40;99.90
25628;DHT22;40915;50.826;4.356;2022-07-06T14:51:27;24.40;99.90
25628;DHT22;40915;50.826;4.356;2022-07-06T14:53:52;24.40;99.90
25628;DHT22;40915;50.826;4.356;2022-07-06T14:56:19;24.40;99.90
25628;DHT22;40915;50.826;4.356;2022-07-06T14:58:44;24.30;99.90
25628;DHT22;40915;50.826;4.356;2022-07-06T15:01:10;24.20;99.90
25628;DHT22;40915;50.826;4.356;2022-07-06T15:03:36;24.10;99.90
25628;DHT22;40915;50.826;4.356;2022-07-06T15:06:02;24.10;99.90
25628;DHT22;40915;50.826;4.356;2022-07-06T15:08:27;24.00;99.90
25628;DHT22;40915;50.826;4.356;2022-07-06T15:10:53;24.10;99.90
25628;DHT22;40915;50.826;4.356;2022-07-06T15:13:19;24.10;99.90
25628;DHT22;40915;50.826;4.356;2022-07-06T15:15:45;24.10;99.90
25628;DHT22;40915;50.826;4.356;2022-07-06T15:18:11;24.10;99.90
25628;DHT22;40915;50.826;4.356;2022-07-06T15:20:37;24.00;99.90
25628;DHT22;40915;50.826;4.356;2022-07-06T15:23:02;24.00;99.90
25628;DHT22;40915;50.826;4.356;2022-07-06T15:25:29;24.10;99.90
25628;DHT22;40915;50.826;4.356;2022-07-06T15:27:55;23.90;99.90
25628;DHT22;40915;50.826;4.356;2022-07-06T15:30:20;24.00;99.90
25628;DHT22;40915;50.826;4.356;2022-07-06T15:32:46;24.00;99.90
25628;DHT22;40915;50.826;4.356;2022-07-06T15:35:12;24.00;99.90
25628;DHT22;40915;50.826;4.356;2022-07-06T15:37:37;24.10;99.90
25628;DHT22;40915;50.826;4.356;2022-07-06T15:40:07;23.90;99.90
25628;DHT22;40915;50.826;4.356;2022-07-06T15:42:38;23.90;99.90
25628;DHT22;40915;50.826;4.356;2022-07-06T15:45:06;23.90;99.90
25628;DHT22;40915;50.826;4.356;2022-07-06T15:47:32;23.90;99.90
25628;DHT22;40915;50.826;4.356;2022-07-06T15:49:58;23.90;99.90
25628;DHT22;40915;50.826;4.356;2022-07-06T15:52:23;24.00;99.90
25628;DHT22;40915;50.826;4.356;2022-07-06T15:54:49;24.10;99.90
25628;DHT22;40915;50.826;4.356;2022-07-06T15:57:15;24.20;99.90
25628;DHT22;40915;50.826;4.356;2022-07-06T15:59:41;24.20;99.90
25628;DHT22;40915;50.826;4.356;2022-07-06T16:02:07;24.20;99.90
25628;DHT22;40915;50.826;4.356;2022-07-06T16:04:32;24.20;99.90
25628;DHT22;40915;50.826;4.356;2022-07-06T16:06:58;24.20;99.90